createdAt,value
2023-03-05T00:01:07.990Z,33.30
2023-03-05T00:03:36.091Z,35.78
2023-03-05T00:06:04.794Z,32.97
2023-03-05T00:08:33.681Z,33.88
2023-03-05T00:11:04.197Z,31.85
2023-03-05T00:13:32.551Z,40.10
2023-03-05T00:16:03.718Z,35.63
2023-03-05T00:18:33.293Z,33.15
2023-03-05T00:21:01.648Z,32.03
2023-03-05T00:23:29.825Z,34.55
2023-03-05T00:25:58.461Z,30.60
2023-03-05T00:28:26.541Z,30.90
2023-03-05T00:30:55.070Z,37.72
2023-03-05T00:33:23.207Z,33.92
2023-03-05T00:35:53.117Z,37.33
2023-03-05T00:38:21.332Z,33.40
2023-03-05T00:40:56.278Z,32.65
2023-03-05T00:43:24.368Z,34.28
2023-03-05T00:45:52.726Z,37.83
2023-03-05T00:48:22.332Z,35.40
2023-03-05T00:50:51.027Z,36.00
2023-03-05T00:53:20.566Z,34.10
2023-03-05T00:55:49.085Z,35.20
2023-03-05T00:58:17.308Z,34.47
2023-03-05T01:00:45.609Z,32.50
2023-03-05T01:03:13.790Z,35.00
2023-03-05T01:05:42.113Z,34.58
2023-03-05T01:08:10.642Z,36.15
2023-03-05T01:10:40.576Z,31.40
2023-03-05T01:13:08.754Z,35.70
2023-03-05T01:15:38.354Z,36.27
2023-03-05T01:18:06.908Z,31.48
2023-03-05T01:20:35.325Z,34.03
2023-03-05T01:23:03.611Z,37.80
2023-03-05T01:25:31.938Z,34.53
2023-03-05T01:28:01.862Z,35.13
2023-03-05T01:30:30.229Z,36.50
2023-03-05T01:32:59.385Z,39.28
2023-03-05T01:35:27.837Z,33.10
2023-03-05T01:37:56.276Z,35.80
2023-03-05T01:40:28.406Z,35.63
2023-03-05T01:42:59.935Z,33.97
2023-03-05T01:45:32.357Z,33.88
2023-03-05T01:48:01.518Z,37.85
2023-03-05T01:50:30.315Z,36.97
2023-03-05T01:53:00.562Z,34.43
2023-03-05T01:55:30.521Z,37.15
2023-03-05T01:58:01.825Z,35.38
2023-03-05T02:00:34.970Z,34.95
2023-03-05T02:03:05.759Z,34.25
2023-03-05T02:05:36.434Z,35.77
2023-03-05T02:08:06.786Z,38.42
2023-03-05T02:10:38.025Z,37.15
2023-03-05T02:13:08.233Z,36.40
2023-03-05T02:15:38.596Z,35.53
2023-03-05T02:18:07.299Z,37.50
2023-03-05T02:20:45.383Z,33.65
2023-03-05T02:23:15.476Z,38.00
2023-03-05T02:25:43.956Z,42.05
2023-03-05T02:28:17.677Z,38.35
2023-03-05T02:30:46.102Z,33.80
2023-03-05T02:33:14.906Z,36.45
2023-03-05T02:35:46.317Z,36.15
2023-03-05T02:38:17.392Z,36.03
2023-03-05T02:40:45.847Z,39.17
2023-03-05T02:43:16.458Z,36.30
2023-03-05T02:45:44.860Z,33.33
2023-03-05T02:48:13.253Z,36.92
2023-03-05T02:50:42.198Z,34.58
2023-03-05T02:53:10.621Z,38.00
2023-03-05T02:55:41.339Z,35.57
2023-03-05T02:58:09.452Z,35.60
2023-03-05T03:00:37.808Z,35.63
2023-03-05T03:03:06.607Z,36.00
2023-03-05T03:05:35.604Z,35.63
2023-03-05T03:08:03.674Z,32.30
2023-03-05T03:10:32.522Z,35.80
2023-03-05T03:13:01.898Z,37.78
2023-03-05T03:15:30.244Z,37.67
2023-03-05T03:17:58.545Z,37.92
2023-03-05T03:20:26.876Z,37.53
2023-03-05T03:22:55.070Z,34.95
2023-03-05T03:25:23.978Z,32.10
2023-03-05T03:27:53.620Z,36.45
2023-03-05T03:30:23.286Z,36.08
2023-03-05T03:32:52.455Z,42.47
2023-03-05T03:35:21.237Z,32.25
2023-03-05T03:37:50.258Z,34.70
2023-03-05T03:40:18.839Z,42.63
2023-03-05T03:42:46.946Z,35.42
2023-03-05T03:45:16.567Z,39.17
2023-03-05T03:47:46.129Z,36.75
2023-03-05T03:50:14.488Z,33.30
2023-03-05T03:52:42.663Z,36.28
2023-03-05T03:55:11.606Z,40.88
2023-03-05T03:57:39.838Z,35.53
2023-03-05T04:00:10.116Z,35.95
2023-03-05T04:02:41.207Z,34.75
2023-03-05T04:05:11.821Z,36.58
2023-03-05T04:07:39.873Z,35.08
2023-03-05T04:10:08.853Z,35.03
2023-03-05T04:12:37.095Z,35.05
2023-03-05T04:15:07.923Z,36.88
2023-03-05T04:17:36.203Z,35.00
2023-03-05T04:20:06.169Z,34.83
2023-03-05T04:22:35.519Z,38.27
2023-03-05T04:25:06.419Z,34.05
2023-03-05T04:27:36.048Z,38.13
2023-03-05T04:30:05.224Z,39.60
2023-03-05T04:32:33.611Z,37.85
2023-03-05T04:35:01.929Z,35.27
2023-03-05T04:37:30.002Z,41.90
2023-03-05T04:39:59.645Z,42.08
2023-03-05T04:42:27.720Z,37.08
2023-03-05T04:44:56.341Z,38.90
2023-03-05T04:47:24.466Z,35.27
2023-03-05T04:49:53.069Z,32.13
2023-03-05T04:52:21.125Z,32.53
2023-03-05T04:54:49.501Z,32.22
2023-03-05T04:57:19.456Z,34.28
2023-03-05T04:59:47.901Z,34.60
2023-03-05T05:02:18.110Z,32.05
2023-03-05T05:04:46.581Z,37.10
2023-03-05T05:07:14.624Z,33.55
2023-03-05T05:09:42.968Z,34.08
2023-03-05T05:12:11.391Z,34.90
2023-03-05T05:14:40.966Z,37.35
2023-03-05T05:17:09.059Z,35.67
2023-03-05T05:19:37.557Z,35.33
2023-03-05T05:22:05.621Z,33.28
2023-03-05T05:24:33.948Z,34.77
2023-03-05T05:27:02.012Z,33.75
2023-03-05T05:29:30.372Z,34.30
2023-03-05T05:31:59.842Z,35.30
2023-03-05T05:34:28.261Z,31.17
2023-03-05T05:36:56.371Z,37.53
2023-03-05T05:39:24.718Z,34.05
2023-03-05T05:41:52.950Z,36.85
2023-03-05T05:44:21.390Z,37.60
2023-03-05T05:46:49.704Z,32.50
2023-03-05T05:49:19.603Z,38.67
2023-03-05T05:51:47.728Z,31.60
2023-03-05T05:54:16.696Z,33.22
2023-03-05T05:56:44.787Z,34.58
2023-03-05T05:59:13.217Z,32.33
2023-03-05T06:01:41.386Z,34.90
2023-03-05T06:04:09.765Z,34.58
2023-03-05T06:06:39.217Z,37.78
2023-03-05T06:09:07.484Z,36.10
2023-03-05T06:11:35.673Z,36.63
2023-03-05T06:14:04.099Z,33.67
2023-03-05T06:16:32.154Z,34.05
2023-03-05T06:19:04.462Z,30.90
2023-03-05T06:21:33.308Z,30.60
2023-03-05T06:24:03.569Z,32.05
2023-03-05T06:26:31.746Z,32.90
2023-03-05T06:29:00.198Z,31.38
2023-03-05T06:31:29.390Z,31.20
2023-03-05T06:34:01.103Z,32.40
2023-03-05T06:36:29.531Z,35.25
2023-03-05T06:38:58.599Z,33.30
2023-03-05T06:41:29.685Z,33.47
2023-03-05T06:43:58.581Z,34.78
2023-03-05T06:46:28.314Z,33.80
2023-03-05T06:48:57.878Z,33.80
2023-03-05T06:51:27.412Z,32.03
2023-03-05T06:53:56.389Z,32.65
2023-03-05T06:56:24.611Z,32.83
2023-03-05T06:58:54.371Z,31.92
2023-03-05T07:01:23.595Z,31.58
2023-03-05T07:03:53.406Z,30.97
2023-03-05T07:06:22.722Z,34.13
2023-03-05T07:08:51.436Z,32.60
2023-03-05T07:11:20.942Z,38.70
2023-03-05T07:13:49.769Z,32.20
2023-03-05T07:16:21.396Z,33.83
2023-03-05T07:18:50.201Z,35.22
2023-03-05T07:21:20.445Z,33.72
2023-03-05T07:23:49.234Z,38.63
2023-03-05T07:26:17.678Z,37.22
2023-03-05T07:28:46.237Z,34.70
2023-03-05T07:31:17.816Z,36.17
2023-03-05T07:33:47.674Z,32.22
2023-03-05T07:36:16.075Z,35.50
2023-03-05T07:38:44.479Z,33.15
2023-03-05T07:41:14.468Z,38.60
2023-03-05T07:43:42.810Z,34.80
2023-03-05T07:46:12.830Z,33.60
2023-03-05T07:48:41.312Z,37.03
2023-03-05T07:51:14.808Z,31.35
2023-03-05T07:53:43.563Z,35.33
2023-03-05T07:56:11.859Z,35.22
2023-03-05T07:58:40.227Z,30.83
2023-03-05T08:01:13.901Z,35.90
2023-03-05T08:03:42.819Z,35.70
2023-03-05T08:06:13.176Z,34.67
2023-03-05T08:08:41.492Z,32.08
2023-03-05T08:11:11.536Z,37.83
2023-03-05T08:13:40.325Z,36.05
2023-03-05T08:16:11.529Z,35.13
2023-03-05T08:18:39.647Z,32.10
2023-03-05T08:21:08.189Z,29.50
2023-03-05T08:23:37.725Z,32.55
2023-03-05T08:26:13.184Z,33.08
2023-03-05T08:28:43.277Z,29.67
2023-03-05T08:31:12.372Z,35.70
2023-03-05T08:33:40.858Z,29.10
2023-03-05T08:36:10.660Z,30.40
2023-03-05T08:38:40.215Z,29.55
2023-03-05T08:41:08.976Z,23.20
2023-03-05T08:43:37.241Z,27.20
2023-03-05T08:46:08.043Z,26.40
2023-03-05T08:48:36.152Z,26.88
2023-03-05T08:51:09.000Z,25.63
2023-03-05T08:53:37.070Z,25.02
2023-03-05T08:56:07.919Z,23.77
2023-03-05T08:58:36.056Z,22.55
2023-03-05T09:01:04.804Z,22.02
2023-03-05T09:03:33.155Z,18.88
2023-03-05T09:06:02.160Z,19.48
2023-03-05T09:08:30.732Z,20.00
2023-03-05T09:10:59.130Z,19.48
2023-03-05T09:13:28.613Z,17.67
2023-03-05T09:15:57.645Z,18.08
2023-03-05T09:18:26.082Z,23.48
2023-03-05T09:20:54.796Z,17.20
2023-03-05T09:23:23.446Z,17.80
2023-03-05T09:25:52.071Z,18.17
2023-03-05T09:28:20.253Z,18.33
2023-03-05T09:30:49.994Z,17.08
2023-03-05T09:33:18.270Z,18.83
2023-03-05T09:35:48.204Z,16.98
2023-03-05T09:38:16.535Z,16.63
2023-03-05T09:40:49.987Z,18.77
2023-03-05T09:43:28.682Z,18.10
2023-03-05T09:46:14.890Z,15.90
2023-03-05T09:48:51.923Z,16.40
2023-03-05T09:51:24.218Z,14.48
2023-03-05T09:53:56.844Z,15.85
2023-03-05T09:56:27.812Z,14.75
2023-03-05T09:58:58.636Z,13.93
2023-03-05T10:01:33.299Z,12.82
2023-03-05T10:04:05.495Z,13.38
2023-03-05T10:06:37.459Z,14.07
2023-03-05T10:09:08.836Z,14.90
2023-03-05T10:11:44.692Z,14.40
2023-03-05T10:14:15.350Z,12.95
2023-03-05T10:17:01.352Z,15.35
2023-03-05T10:19:42.651Z,11.88
2023-03-05T10:22:18.411Z,15.02
2023-03-05T10:24:57.606Z,13.37
2023-03-05T10:27:35.213Z,11.15
2023-03-05T10:30:13.796Z,15.63
2023-03-05T10:32:50.250Z,12.18
2023-03-05T10:35:34.818Z,10.90
2023-03-05T10:38:26.894Z,13.57
2023-03-05T10:40:55.972Z,14.75
2023-03-05T10:43:28.293Z,12.13
2023-03-05T10:45:58.414Z,13.75
2023-03-05T10:48:35.970Z,13.07
2023-03-05T10:51:09.461Z,11.17
2023-03-05T10:53:46.558Z,13.10
2023-03-05T10:56:14.928Z,12.77
2023-03-05T10:58:44.345Z,14.35
2023-03-05T11:01:22.787Z,13.85
2023-03-05T11:03:56.004Z,12.70
2023-03-05T11:06:36.505Z,13.50
2023-03-05T11:09:24.187Z,13.27
2023-03-05T11:12:15.576Z,12.38
2023-03-05T11:14:45.848Z,11.98
2023-03-05T11:17:32.473Z,15.20
2023-03-05T11:25:38.310Z,13.02
2023-03-05T11:32:36.537Z,12.18
2023-03-05T11:35:29.399Z,11.13
2023-03-05T11:38:01.814Z,10.95
2023-03-05T11:40:35.935Z,12.05
2023-03-05T11:43:05.337Z,10.63
2023-03-05T11:45:36.603Z,11.80
2023-03-05T11:48:09.450Z,10.87
2023-03-05T11:50:39.398Z,11.18
2023-03-05T11:53:11.147Z,11.80
2023-03-05T11:55:42.729Z,10.20
2023-03-05T11:58:28.805Z,11.43
2023-03-05T12:00:59.098Z,9.27
2023-03-05T12:03:30.846Z,9.40
2023-03-05T12:06:03.174Z,10.13
2023-03-05T12:08:34.597Z,11.13
2023-03-05T12:11:07.248Z,11.32
2023-03-05T12:13:39.236Z,12.87
2023-03-05T12:16:14.091Z,11.38
2023-03-05T12:18:52.461Z,12.50
2023-03-05T12:21:28.889Z,12.02
2023-03-05T12:24:01.325Z,12.10
2023-03-05T12:26:56.081Z,9.07
2023-03-05T12:29:32.581Z,8.95
2023-03-05T12:32:02.683Z,11.00
2023-03-05T12:34:51.043Z,11.07
2023-03-05T12:37:57.246Z,11.05
2023-03-05T12:40:26.938Z,10.07
2023-03-05T12:42:57.753Z,10.07
2023-03-05T12:45:37.997Z,11.50
2023-03-05T12:48:45.745Z,11.13
2023-03-05T12:51:16.328Z,10.40
2023-03-05T12:53:44.708Z,11.90
2023-03-05T12:56:20.357Z,11.30
2023-03-05T12:58:51.573Z,12.00
2023-03-05T13:01:30.630Z,8.73
2023-03-05T13:04:04.228Z,9.40
2023-03-05T13:06:34.544Z,11.37
2023-03-05T13:09:05.878Z,9.38
2023-03-05T13:11:36.049Z,8.45
2023-03-05T13:14:04.520Z,12.90
2023-03-05T13:16:38.415Z,14.45
2023-03-05T13:19:16.987Z,13.53
2023-03-05T13:21:45.567Z,13.00
2023-03-05T13:24:18.005Z,15.27
2023-03-05T13:26:46.690Z,16.15
2023-03-05T13:29:16.658Z,15.52
2023-03-05T13:31:46.546Z,14.23
2023-03-05T13:34:46.161Z,11.40
2023-03-05T13:37:43.083Z,13.38
2023-03-05T13:40:29.683Z,11.60
2023-03-05T13:43:21.323Z,10.95
2023-03-05T13:47:13.474Z,9.43
2023-03-05T13:50:11.139Z,12.65
2023-03-05T13:53:59.939Z,11.38
2023-03-05T13:57:47.363Z,10.18
2023-03-05T14:02:14.675Z,7.97
2023-03-05T14:04:46.612Z,8.07
2023-03-05T14:07:29.256Z,9.55
2023-03-05T14:09:58.270Z,8.48
2023-03-05T14:12:31.375Z,9.27
2023-03-05T14:15:06.816Z,8.60
2023-03-05T14:17:41.442Z,7.93
2023-03-05T14:20:23.738Z,8.73
2023-03-05T14:22:54.111Z,7.50
2023-03-05T14:25:31.016Z,12.02
2023-03-05T14:27:59.481Z,9.35
2023-03-05T14:30:30.800Z,10.30
2023-03-05T14:33:01.882Z,10.85
2023-03-05T14:35:32.083Z,8.82
2023-03-05T14:38:03.441Z,12.80
2023-03-05T14:40:33.377Z,9.18
2023-03-05T14:43:02.650Z,9.97
2023-03-05T14:45:37.463Z,18.92
2023-03-05T14:48:09.072Z,13.68
2023-03-05T14:50:40.250Z,12.65
2023-03-05T14:53:10.360Z,12.57
2023-03-05T14:55:39.725Z,11.73
2023-03-05T14:58:12.770Z,12.02
2023-03-05T15:00:41.411Z,12.15
2023-03-05T15:03:11.780Z,10.38
2023-03-05T15:05:42.197Z,16.30
2023-03-05T15:08:14.704Z,11.73
2023-03-05T15:10:43.268Z,12.07
2023-03-05T15:13:12.620Z,19.15
2023-03-05T15:15:43.700Z,10.57
2023-03-05T15:18:13.841Z,9.30
2023-03-05T15:20:44.248Z,11.13
2023-03-05T15:23:14.275Z,10.45
2023-03-05T15:25:43.081Z,10.68
2023-03-05T15:28:11.538Z,10.02
2023-03-05T15:30:44.941Z,11.13
2023-03-05T15:33:15.401Z,9.30
2023-03-05T15:35:48.251Z,10.23
2023-03-05T15:38:18.225Z,10.52
2023-03-05T15:40:46.997Z,10.90
2023-03-05T15:43:15.416Z,11.05
2023-03-05T15:45:46.297Z,8.53
2023-03-05T15:48:14.550Z,10.93
2023-03-05T15:50:45.613Z,9.88
2023-03-05T15:53:17.829Z,9.65
2023-03-05T15:55:54.137Z,10.82
2023-03-05T15:58:22.506Z,9.67
2023-03-05T16:00:50.896Z,9.27
2023-03-05T16:03:19.371Z,9.82
2023-03-05T16:05:48.065Z,9.20
2023-03-05T16:08:17.543Z,7.88
2023-03-05T16:10:47.401Z,7.93
2023-03-05T16:13:18.581Z,8.88
2023-03-05T16:16:03.352Z,9.63
2023-03-05T16:19:49.841Z,10.93
2023-03-05T16:27:36.920Z,8.70
2023-03-05T16:30:06.047Z,7.35
2023-03-05T16:32:34.821Z,6.70
2023-03-05T16:35:03.369Z,9.25
2023-03-05T16:37:31.893Z,9.77
2023-03-05T16:40:00.522Z,11.40
2023-03-05T16:42:29.118Z,14.13
2023-03-05T16:44:59.048Z,11.48
2023-03-05T16:47:27.591Z,13.68
2023-03-05T16:49:58.810Z,11.55
2023-03-05T16:52:27.631Z,10.60
2023-03-05T16:54:56.027Z,8.82
2023-03-05T16:57:25.411Z,11.30
2023-03-05T16:59:54.109Z,10.15
2023-03-05T17:02:24.229Z,12.63
2023-03-05T17:04:52.887Z,10.40
2023-03-05T17:07:21.201Z,9.63
2023-03-05T17:09:50.333Z,13.45
2023-03-05T17:12:18.880Z,15.02
2023-03-05T17:14:47.019Z,15.95
2023-03-05T17:17:15.594Z,18.20
2023-03-05T17:19:45.084Z,14.98
2023-03-05T17:22:15.984Z,15.48
2023-03-05T17:24:44.426Z,20.73
2023-03-05T17:27:13.057Z,16.60
2023-03-05T17:29:41.149Z,14.37
2023-03-05T17:32:09.467Z,19.77
2023-03-05T17:34:37.578Z,17.00
2023-03-05T17:37:07.317Z,26.23
2023-03-05T17:39:35.445Z,27.52
2023-03-05T17:42:03.772Z,17.67
2023-03-05T17:44:32.023Z,20.70
2023-03-05T17:47:00.360Z,23.55
2023-03-05T17:49:28.477Z,21.38
2023-03-05T17:51:57.204Z,35.20
2023-03-05T17:54:26.785Z,30.77
2023-03-05T17:56:55.612Z,29.23
2023-03-05T17:59:24.601Z,22.50
2023-03-05T18:01:52.926Z,20.35
2023-03-05T18:04:21.483Z,17.85
2023-03-05T18:06:49.904Z,15.07
2023-03-05T18:09:17.896Z,14.25
2023-03-05T18:11:48.800Z,15.30
2023-03-05T18:14:17.267Z,14.98
2023-03-05T18:16:45.712Z,14.68
2023-03-05T18:19:18.579Z,16.50
2023-03-05T18:21:46.910Z,19.70
2023-03-05T18:24:16.888Z,16.45
2023-03-05T18:26:45.491Z,16.63
2023-03-05T18:29:16.089Z,14.60
2023-03-05T18:31:45.538Z,15.13
2023-03-05T18:34:15.754Z,15.98
2023-03-05T18:36:44.072Z,15.75
2023-03-05T18:39:16.264Z,13.63
2023-03-05T18:41:44.630Z,16.55
2023-03-05T18:44:13.396Z,15.33
2023-03-05T18:46:43.220Z,15.05
2023-03-05T18:49:11.810Z,14.80
2023-03-05T18:51:41.495Z,16.38
2023-03-05T18:54:09.713Z,15.63
2023-03-05T18:56:38.090Z,12.47
2023-03-05T18:59:06.261Z,15.20
2023-03-05T19:01:34.701Z,14.50
2023-03-05T19:04:04.561Z,14.73
2023-03-05T19:06:33.070Z,16.52
2023-03-05T19:09:06.906Z,15.33
2023-03-05T19:11:35.331Z,17.48
2023-03-05T19:14:03.762Z,17.83
2023-03-05T19:16:39.361Z,16.58
2023-03-05T19:19:15.287Z,14.30
2023-03-05T19:21:45.094Z,15.47
2023-03-05T19:24:13.875Z,15.93
2023-03-05T19:26:42.546Z,13.18
2023-03-05T19:29:11.094Z,17.52
2023-03-05T19:31:40.002Z,14.40
2023-03-05T19:34:09.554Z,20.27
2023-03-05T19:36:38.037Z,27.75
2023-03-05T19:39:06.623Z,24.20
2023-03-05T19:41:35.674Z,21.13
2023-03-05T19:44:04.533Z,19.95
2023-03-05T19:46:33.212Z,17.73
2023-03-05T19:49:01.401Z,17.70
2023-03-05T19:51:31.298Z,18.40
2023-03-05T19:54:00.555Z,19.23
2023-03-05T19:56:29.042Z,16.02
2023-03-05T19:58:57.197Z,14.77
2023-03-05T20:01:27.523Z,17.05
2023-03-05T20:03:56.887Z,16.08
2023-03-05T20:06:26.273Z,20.42
2023-03-05T20:08:58.666Z,19.65
2023-03-05T20:11:28.510Z,18.00
2023-03-05T20:13:57.278Z,14.40
2023-03-05T20:16:27.910Z,17.05
2023-03-05T20:18:57.112Z,18.48
2023-03-05T20:21:27.650Z,16.73
2023-03-05T20:23:58.878Z,21.33
2023-03-05T20:26:28.372Z,23.80
2023-03-05T20:28:57.280Z,22.10
2023-03-05T20:31:27.359Z,19.77
2023-03-05T20:33:56.151Z,20.65
2023-03-05T20:36:24.575Z,23.10
2023-03-05T20:38:52.758Z,19.02
2023-03-05T20:41:22.742Z,19.92
2023-03-05T20:43:51.878Z,29.35
2023-03-05T20:46:22.244Z,27.52
2023-03-05T20:48:52.903Z,22.63
2023-03-05T20:51:24.312Z,20.20
2023-03-05T20:53:56.617Z,18.95
2023-03-05T20:56:27.875Z,19.27
2023-03-05T20:58:58.189Z,15.35
2023-03-05T21:01:27.110Z,20.03
2023-03-05T21:03:56.993Z,21.98
2023-03-05T21:06:25.619Z,20.17
2023-03-05T21:08:53.895Z,23.27
2023-03-05T21:11:22.393Z,23.20
2023-03-05T21:13:52.119Z,20.47
2023-03-05T21:16:23.293Z,20.35
2023-03-05T21:18:51.915Z,17.60
2023-03-05T21:21:23.653Z,17.70
2023-03-05T21:23:52.075Z,15.95
2023-03-05T21:26:20.807Z,16.93
2023-03-05T21:28:49.070Z,18.90
2023-03-05T21:31:21.019Z,17.00
2023-03-05T21:33:49.224Z,16.98
2023-03-05T21:36:18.532Z,15.60
2023-03-05T21:38:46.993Z,18.40
2023-03-05T21:41:20.396Z,14.82
2023-03-05T21:43:48.585Z,15.27
2023-03-05T21:46:17.054Z,15.57
2023-03-05T21:48:46.521Z,15.70
2023-03-05T21:51:17.824Z,15.83
2023-03-05T21:53:45.982Z,17.40
2023-03-05T21:56:23.712Z,17.77
2023-03-05T21:58:52.111Z,14.38
2023-03-05T22:01:21.755Z,15.48
2023-03-05T22:03:51.539Z,15.97
2023-03-05T22:06:20.756Z,14.25
2023-03-05T22:08:49.420Z,17.95
2023-03-05T22:11:19.123Z,18.88
2023-03-05T22:13:47.391Z,18.60
2023-03-05T22:16:22.396Z,16.20
2023-03-05T22:18:52.526Z,16.95
2023-03-05T22:21:22.509Z,19.15
2023-03-05T22:23:50.728Z,20.52
2023-03-05T22:26:19.124Z,15.75
2023-03-05T22:28:47.598Z,19.00
2023-03-05T22:31:21.038Z,23.05
2023-03-05T22:33:49.121Z,19.33
2023-03-05T22:36:18.890Z,22.50
2023-03-05T22:38:47.374Z,20.45
2023-03-05T22:41:19.595Z,20.33
2023-03-05T22:43:48.275Z,20.90
2023-03-05T22:46:18.898Z,18.55
2023-03-05T22:48:47.611Z,20.02
2023-03-05T22:51:16.745Z,18.05
2023-03-05T22:53:46.756Z,20.53
2023-03-05T22:56:16.835Z,20.70
2023-03-05T22:58:45.312Z,22.30
2023-03-05T23:01:14.253Z,18.85
2023-03-05T23:03:42.726Z,20.00
2023-03-05T23:06:11.508Z,18.20
2023-03-05T23:08:39.586Z,20.10
2023-03-05T23:11:10.768Z,18.60
2023-03-05T23:13:38.884Z,17.35
2023-03-05T23:16:07.689Z,19.92
2023-03-05T23:18:35.769Z,24.23
2023-03-05T23:21:04.218Z,18.58
2023-03-05T23:23:32.338Z,21.73
2023-03-05T23:26:01.025Z,17.27
2023-03-05T23:28:30.379Z,19.00
2023-03-05T23:30:58.703Z,20.50
2023-03-05T23:33:28.028Z,17.35
2023-03-05T23:35:57.846Z,20.25
2023-03-05T23:38:26.915Z,20.42
2023-03-05T23:40:56.786Z,18.63
2023-03-05T23:43:26.255Z,22.63
2023-03-05T23:45:56.102Z,22.88
2023-03-05T23:48:25.084Z,21.30
2023-03-05T23:50:53.889Z,21.33
2023-03-05T23:53:23.431Z,17.88
2023-03-05T23:55:52.413Z,20.47
2023-03-05T23:58:21.199Z,18.80
